Time;durP1;ratioP1;P1;durP2;ratioP2;P2;SDS_P1;SDS_P2;PMS_P1;PMS_P2;Temp;Humidity;BMP_temperature;BMP_pressure;BME280_temperature;BME280_humidity;BME280_pressure;Samples;Min_cycle;Max_cycle;Signal;HPM_P1;HPM_P2
2023/05/21 00:02:10;;;;;;;4.75;4.22;;;24.30;99.90;;;;;;5035186;28;20401;-57
2023/05/21 00:04:40;;;;;;;6.43;4.32;;;24.30;99.90;;;;;;5036452;28;20032;-57
2023/05/21 00:07:07;;;;;;;6.20;4.60;;;24.30;99.90;;;;;;5036276;28;20045;-58
2023/05/21 00:09:33;;;;;;;5.60;3.80;;;24.30;99.90;;;;;;5036225;28;20033;-57
2023/05/21 00:11:59;;;;;;;6.10;4.32;;;24.30;99.90;;;;;;5036142;28;20116;-58
2023/05/21 00:14:25;;;;;;;7.00;4.03;;;24.30;99.90;;;;;;5036380;28;20101;-57
2023/05/21 00:16:51;;;;;;;7.00;4.65;;;24.30;99.90;;;;;;5035861;28;20050;-57
2023/05/21 00:19:16;;;;;;;6.15;4.32;;;24.30;99.90;;;;;;5036136;28;20453;-58
2023/05/21 00:21:44;;;;;;;5.78;4.43;;;24.30;99.90;;;;;;5035910;28;20033;-57
2023/05/21 00:24:10;;;;;;;5.30;4.55;;;24.30;99.90;;;;;;5035598;28;20021;-58
2023/05/21 00:26:36;;;;;;;4.72;4.00;;;24.30;99.90;;;;;;5035918;28;20017;-57
2023/05/21 00:29:03;;;;;;;5.30;3.90;;;24.30;99.90;;;;;;5035833;28;20032;-57
2023/05/21 00:31:31;;;;;;;5.07;4.03;;;24.30;99.90;;;;;;5035571;28;20022;-57
2023/05/21 00:33:57;;;;;;;5.95;3.90;;;24.30;99.90;;;;;;5035955;28;20025;-57
2023/05/21 00:36:22;;;;;;;5.25;3.70;;;24.30;99.90;;;;;;5034308;28;20474;-58
2023/05/21 00:38:49;;;;;;;5.75;4.68;;;24.30;99.90;;;;;;5033376;28;20032;-57
2023/05/21 00:41:16;;;;;;;4.87;3.77;;;24.30;99.90;;;;;;5034501;28;20474;-58
2023/05/21 00:43:43;;;;;;;5.40;3.70;;;24.30;99.90;;;;;;5034632;28;20477;-58
2023/05/21 00:46:18;;;;;;;8.00;4.60;;;24.30;99.90;;;;;;5035607;28;20017;-57
2023/05/21 00:48:45;;;;;;;4.95;3.95;;;24.30;99.90;;;;;;5035342;28;20030;-58
2023/05/21 00:51:17;;;;;;;7.30;4.75;;;24.30;99.90;;;;;;5035421;28;20409;-57
2023/05/21 00:53:44;;;;;;;6.80;4.78;;;24.30;99.90;;;;;;5035193;28;20037;-57
2023/05/21 00:56:11;;;;;;;6.15;4.25;;;24.30;99.90;;;;;;5035797;28;20068;-57
2023/05/21 00:58:39;;;;;;;6.22;4.43;;;24.30;99.90;;;;;;5034300;28;20079;-58
2023/05/21 01:01:05;;;;;;;8.35;4.40;;;24.30;99.90;;;;;;5035665;28;20041;-57
2023/05/21 01:03:37;;;;;;;6.25;4.13;;;24.30;99.90;;;;;;5035576;28;20029;-57
2023/05/21 01:06:07;;;;;;;7.10;4.72;;;24.20;99.90;;;;;;5035307;28;20025;-58
2023/05/21 01:08:36;;;;;;;5.10;4.38;;;24.20;99.90;;;;;;5035085;28;20469;-57
2023/05/21 01:11:03;;;;;;;5.97;4.65;;;24.20;99.90;;;;;;5035029;28;20021;-57
2023/05/21 01:13:31;;;;;;;5.85;4.82;;;24.20;99.90;;;;;;5035255;28;20068;-58
2023/05/21 01:15:58;;;;;;;6.72;4.88;;;24.30;99.90;;;;;;5034848;28;20101;-57
2023/05/21 01:18:25;;;;;;;6.13;4.82;;;24.20;99.90;;;;;;5035186;28;20036;-58
2023/05/21 01:20:51;;;;;;;6.47;4.32;;;24.20;99.90;;;;;;5034903;28;20018;-57
2023/05/21 01:23:17;;;;;;;9.65;4.85;;;24.20;99.90;;;;;;5034851;28;20029;-57
2023/05/21 01:25:44;;;;;;;6.93;4.32;;;24.20;99.90;;;;;;5034944;28;20032;-58
2023/05/21 01:28:10;;;;;;;6.75;4.55;;;24.20;99.90;;;;;;5035086;28;20071;-57
2023/05/21 01:30:38;;;;;;;6.93;4.53;;;24.20;99.90;;;;;;5034249;28;20098;-58
2023/05/21 01:33:11;;;;;;;5.65;4.28;;;24.20;99.90;;;;;;5034480;28;20041;-57
2023/05/21 01:35:54;;;;;;;7.05;4.80;;;24.20;99.90;;;;;;5033026;28;20022;-57
2023/05/21 01:38:31;;;;;;;5.30;4.32;;;24.20;99.90;;;;;;5034354;28;20385;-57
2023/05/21 01:41:02;;;;;;;;;;;24.20;99.90;;;;;;5034755;28;20370;-57
2023/05/21 01:43:31;;;;;;;6.90;5.05;;;24.20;99.90;;;;;;5034817;28;19994;-58
2023/05/21 01:45:59;;;;;;;5.65;4.05;;;24.20;99.90;;;;;;5034328;28;20025;-57
2023/05/21 01:48:27;;;;;;;5.30;4.30;;;24.20;99.90;;;;;;5034778;28;20024;-57
2023/05/21 01:50:54;;;;;;;8.02;4.93;;;24.20;99.90;;;;;;5033241;28;20620;-57
2023/05/21 01:53:20;;;;;;;;;;;24.20;99.90;;;;;;5034817;28;20037;-56
2023/05/21 01:55:47;;;;;;;7.10;4.63;;;24.20;99.90;;;;;;5033899;28;19968;-57
2023/05/21 01:58:14;;;;;;;7.50;5.45;;;24.20;99.90;;;;;;5034286;28;20013;-56
2023/05/21 02:00:40;;;;;;;5.70;4.47;;;24.20;99.90;;;;;;5034571;28;20082;-56
2023/05/21 02:03:07;;;;;;;6.45;4.50;;;24.20;99.90;;;;;;5034417;28;20049;-56
2023/05/21 02:05:33;;;;;;;6.13;4.60;;;24.20;99.90;;;;;;5034270;28;20020;-56
2023/05/21 02:08:00;;;;;;;6.65;4.43;;;24.10;99.90;;;;;;5034167;28;20021;-57
2023/05/21 02:10:25;;;;;;;6.28;4.97;;;24.20;99.90;;;;;;5033547;28;20462;-56
2023/05/21 02:12:51;;;;;;;6.63;5.03;;;24.20;99.90;;;;;;5033916;28;20037;-56
2023/05/21 02:15:17;;;;;;;7.20;4.40;;;24.20;99.90;;;;;;5033737;28;20112;-56
2023/05/21 02:17:44;;;;;;;6.35;4.55;;;24.20;99.90;;;;;;5033749;28;20030;-56
2023/05/21 02:20:12;;;;;;;7.97;4.22;;;24.10;99.90;;;;;;5033759;28;20013;-56
2023/05/21 02:22:43;;;;;;;6.00;3.90;;;24.10;99.90;;;;;;5033811;28;20048;-56
2023/05/21 02:25:10;;;;;;;5.72;4.57;;;24.10;99.90;;;;;;5033698;28;20064;-56
2023/05/21 02:27:37;;;;;;;6.78;4.63;;;24.10;99.90;;;;;;5032630;28;20108;-56
2023/05/21 02:30:05;;;;;;;7.47;4.43;;;24.10;99.90;;;;;;5033359;28;20471;-56
2023/05/21 02:32:31;;;;;;;5.68;4.20;;;24.10;99.90;;;;;;5033466;28;20041;-56
2023/05/21 02:34:57;;;;;;;7.28;4.57;;;24.10;99.90;;;;;;5033876;28;20029;-57
2023/05/21 02:37:26;;;;;;;6.68;4.80;;;24.10;99.90;;;;;;5033121;28;20512;-57
2023/05/21 02:39:53;;;;;;;5.35;4.38;;;24.10;99.90;;;;;;5033226;28;20025;-56
2023/05/21 02:42:20;;;;;;;5.78;4.20;;;24.10;99.90;;;;;;5033412;28;20026;-57
2023/05/21 02:44:46;;;;;;;5.85;4.63;;;24.10;99.90;;;;;;5033644;28;20029;-56
2023/05/21 02:47:12;;;;;;;8.13;4.00;;;24.10;99.90;;;;;;5033065;28;20389;-57
2023/05/21 02:49:37;;;;;;;6.07;4.47;;;24.10;99.90;;;;;;5032296;28;20022;-56
2023/05/21 02:52:04;;;;;;;4.38;3.67;;;24.10;99.90;;;;;;5033296;28;20037;-56
2023/05/21 02:54:30;;;;;;;8.17;4.23;;;24.10;99.90;;;;;;5033522;28;20354;-56
2023/05/21 02:56:56;;;;;;;6.05;4.47;;;24.10;99.90;;;;;;5033395;28;20022;-57
2023/05/21 02:59:22;;;;;;;6.20;4.43;;;24.10;99.90;;;;;;5033330;28;20099;-55
2023/05/21 03:01:48;;;;;;;5.55;4.68;;;24.10;99.90;;;;;;5033308;28;20042;-55
2023/05/21 03:04:16;;;;;;;6.05;4.05;;;24.10;99.90;;;;;;5033281;28;20026;-57
2023/05/21 03:06:42;;;;;;;6.70;4.80;;;24.10;99.90;;;;;;5032534;28;20078;-57
2023/05/21 03:09:08;;;;;;;6.38;4.03;;;24.10;99.90;;;;;;5033031;28;20072;-57
2023/05/21 03:11:33;;;;;;;6.85;4.32;;;24.10;99.90;;;;;;5033401;28;20450;-57
2023/05/21 03:13:59;;;;;;;6.05;4.25;;;24.10;99.90;;;;;;5032778;28;20033;-57
2023/05/21 03:16:25;;;;;;;6.85;4.43;;;24.00;99.90;;;;;;5032848;28;20021;-56
2023/05/21 03:18:51;;;;;;;5.90;4.20;;;24.10;99.90;;;;;;5032850;28;20029;-56
2023/05/21 03:21:16;;;;;;;4.80;3.90;;;24.10;99.90;;;;;;5032928;28;20035;-57
2023/05/21 03:23:42;;;;;;;6.10;4.13;;;24.10;99.90;;;;;;5032640;28;20018;-56
2023/05/21 03:26:08;;;;;;;5.40;3.80;;;24.00;99.90;;;;;;5033141;28;20033;-57
2023/05/21 03:28:34;;;;;;;6.53;4.38;;;24.10;99.90;;;;;;5032918;28;20117;-57
2023/05/21 03:31:00;;;;;;;4.75;3.95;;;24.00;99.90;;;;;;5032634;28;20022;-57
2023/05/21 03:33:26;;;;;;;4.80;4.03;;;24.10;99.90;;;;;;5032809;28;20033;-56
2023/05/21 03:35:53;;;;;;;4.63;3.60;;;24.10;99.90;;;;;;5032906;28;20359;-56
2023/05/21 03:38:19;;;;;;;4.60;3.77;;;24.10;99.90;;;;;;5032874;28;20472;-57
2023/05/21 03:40:44;;;;;;;5.45;3.92;;;24.10;99.90;;;;;;5032575;28;20017;-57
2023/05/21 03:43:10;;;;;;;5.53;4.13;;;24.10;99.90;;;;;;5031472;28;20025;-58
2023/05/21 03:45:36;;;;;;;5.95;4.90;;;24.00;99.90;;;;;;5032645;28;20022;-57
2023/05/21 03:48:02;;;;;;;5.90;4.15;;;24.10;99.90;;;;;;5032835;28;20033;-56
2023/05/21 03:50:27;;;;;;;5.70;4.07;;;24.10;99.90;;;;;;5031474;28;20038;-57
2023/05/21 03:52:53;;;;;;;6.20;4.70;;;24.00;99.90;;;;;;5015194;28;20551;-56
2023/05/21 03:55:19;;;;;;;5.32;4.15;;;24.10;99.90;;;;;;5024999;28;20096;-57
2023/05/21 03:57:45;;;;;;;5.10;4.10;;;24.10;99.90;;;;;;5033048;28;20064;-56
2023/05/21 04:00:11;;;;;;;6.43;4.10;;;24.10;99.90;;;;;;5032789;28;20049;-56
2023/05/21 04:02:36;;;;;;;5.63;4.40;;;24.10;99.90;;;;;;5032511;28;20069;-57
2023/05/21 04:05:02;;;;;;;4.88;3.97;;;24.10;99.90;;;;;;5032644;28;20476;-58
2023/05/21 04:07:28;;;;;;;6.10;3.97;;;24.10;99.90;;;;;;5032550;28;20037;-56
2023/05/21 04:09:54;;;;;;;4.22;3.80;;;24.00;99.90;;;;;;5032402;28;20022;-57
2023/05/21 04:12:21;;;;;;;3.70;3.30;;;24.00;99.90;;;;;;5032039;28;20034;-57
2023/05/21 04:14:47;;;;;;;6.60;3.97;;;24.00;99.90;;;;;;5032504;28;20542;-57
2023/05/21 04:17:12;;;;;;;5.35;3.72;;;24.00;99.90;;;;;;5032839;28;20108;-57
2023/05/21 04:19:38;;;;;;;5.68;4.30;;;24.00;99.90;;;;;;5037315;28;20079;-57
2023/05/21 04:22:04;;;;;;;5.78;3.92;;;24.10;99.90;;;;;;5034825;28;20093;-57
2023/05/21 04:24:30;;;;;;;4.72;3.83;;;24.00;99.90;;;;;;5035747;28;20025;-57
2023/05/21 04:26:59;;;;;;;4.28;3.38;;;24.00;99.90;;;;;;5036154;28;20017;-58
2023/05/21 04:29:26;;;;;;;6.07;3.75;;;24.00;99.90;;;;;;5036203;28;20029;-57
2023/05/21 04:31:52;;;;;;;4.90;3.00;;;24.00;99.90;;;;;;5035821;28;20025;-57
2023/05/21 04:34:18;;;;;;;4.93;3.65;;;24.00;99.90;;;;;;5035954;28;20025;-58
2023/05/21 04:36:45;;;;;;;6.93;3.28;;;24.00;99.90;;;;;;5034061;28;20385;-60
2023/05/21 04:39:14;;;;;;;6.00;3.78;;;24.00;99.90;;;;;;5035655;28;20022;-59
2023/05/21 04:41:40;;;;;;;4.43;3.28;;;24.00;99.90;;;;;;5035950;28;20022;-58
2023/05/21 04:44:07;;;;;;;6.00;3.53;;;24.00;99.90;;;;;;5035615;28;20025;-57
2023/05/21 04:46:33;;;;;;;4.78;3.72;;;24.00;99.90;;;;;;5033918;28;20025;-57
2023/05/21 04:49:01;;;;;;;7.03;3.80;;;24.00;99.90;;;;;;5035404;28;20072;-57
2023/05/21 04:51:28;;;;;;;6.75;3.47;;;24.00;99.90;;;;;;5035730;28;20022;-58
2023/05/21 04:53:54;;;;;;;4.57;3.45;;;24.00;99.90;;;;;;5034031;28;20064;-57
2023/05/21 04:56:25;;;;;;;7.63;3.50;;;24.00;99.90;;;;;;5035470;28;20060;-58
2023/05/21 04:58:54;;;;;;;8.38;3.70;;;24.00;99.90;;;;;;5034902;28;20497;-57
2023/05/21 05:01:25;;;;;;;11.50;3.72;;;23.90;99.90;;;;;;5034957;28;20045;-56
2023/05/21 05:03:52;;;;;;;5.43;3.35;;;23.90;99.90;;;;;;5034153;28;20029;-56
2023/05/21 05:06:18;;;;;;;5.75;3.17;;;23.90;99.90;;;;;;5035377;28;20100;-56
2023/05/21 05:08:45;;;;;;;7.05;3.25;;;23.90;99.90;;;;;;5034989;28;20620;-57
2023/05/21 05:11:11;;;;;;;7.50;3.35;;;23.90;99.90;;;;;;5035361;28;20032;-56
2023/05/21 05:13:40;;;;;;;5.45;3.28;;;23.90;99.90;;;;;;5034984;28;20048;-56
2023/05/21 05:16:06;;;;;;;7.90;3.25;;;23.90;99.90;;;;;;5034871;28;20063;-57
2023/05/21 05:18:33;;;;;;;5.25;3.10;;;23.90;99.90;;;;;;5035209;28;20029;-57
2023/05/21 05:20:59;;;;;;;6.35;4.20;;;23.90;99.90;;;;;;5035012;28;20036;-57
2023/05/21 05:23:25;;;;;;;6.28;3.50;;;23.90;99.90;;;;;;5034765;28;20026;-57
2023/05/21 05:25:51;;;;;;;5.13;3.42;;;23.90;99.90;;;;;;5033467;28;20087;-57
2023/05/21 05:28:17;;;;;;;4.90;3.15;;;23.90;99.90;;;;;;5034539;28;20441;-57
2023/05/21 05:30:42;;;;;;;5.60;3.38;;;23.90;99.90;;;;;;5034635;28;20470;-57
2023/05/21 05:33:08;;;;;;;4.32;2.95;;;23.90;99.90;;;;;;5034583;28;20036;-57
2023/05/21 05:35:35;;;;;;;4.50;3.30;;;23.90;99.90;;;;;;5034738;28;20101;-56
2023/05/21 05:38:00;;;;;;;5.60;3.78;;;23.90;99.90;;;;;;5034659;28;20022;-56
2023/05/21 05:40:26;;;;;;;5.50;3.45;;;23.90;99.90;;;;;;5033233;28;20020;-57
2023/05/21 05:42:52;;;;;;;5.80;3.78;;;23.90;99.90;;;;;;5034682;28;20026;-58
2023/05/21 05:45:18;;;;;;;4.53;3.33;;;23.90;99.90;;;;;;5034674;28;20473;-58
2023/05/21 05:47:45;;;;;;;4.40;3.20;;;23.90;99.90;;;;;;5034304;28;20025;-58
2023/05/21 05:50:11;;;;;;;5.10;3.45;;;23.90;99.90;;;;;;5034351;28;20547;-56
2023/05/21 05:52:36;;;;;;;5.32;3.72;;;23.90;99.90;;;;;;5034327;28;20045;-57
2023/05/21 05:55:02;;;;;;;4.95;3.42;;;23.90;99.90;;;;;;5034269;28;20026;-58
2023/05/21 05:57:28;;;;;;;5.60;3.33;;;23.80;99.90;;;;;;5034135;28;20025;-57
2023/05/21 05:59:55;;;;;;;5.90;3.75;;;23.90;99.90;;;;;;5034395;28;20026;-56
2023/05/21 06:02:20;;;;;;;5.95;3.45;;;23.90;99.90;;;;;;5034000;28;20129;-57
2023/05/21 06:04:46;;;;;;;4.95;3.50;;;23.80;99.90;;;;;;5032650;28;20108;-57
2023/05/21 06:07:12;;;;;;;6.07;3.53;;;23.90;99.90;;;;;;5034094;28;20037;-56
2023/05/21 06:09:38;;;;;;;4.78;3.40;;;23.90;99.90;;;;;;5032793;28;20022;-56
2023/05/21 06:12:06;;;;;;;5.10;3.53;;;23.90;99.90;;;;;;5033973;28;20029;-56
2023/05/21 06:14:32;;;;;;;6.35;3.55;;;23.80;99.90;;;;;;5033963;28;20044;-57
2023/05/21 06:16:58;;;;;;;4.72;3.55;;;23.90;99.90;;;;;;5033902;28;20017;-57
2023/05/21 06:19:24;;;;;;;5.68;3.60;;;23.80;99.90;;;;;;5034042;28;20021;-57
2023/05/21 06:21:50;;;;;;;5.95;3.40;;;23.80;99.90;;;;;;5034079;28;20441;-58
2023/05/21 06:24:15;;;;;;;4.45;3.33;;;23.80;99.90;;;;;;5033809;28;20382;-57
2023/05/21 06:26:41;;;;;;;4.93;3.53;;;23.80;99.90;;;;;;5033837;28;20030;-56
2023/05/21 06:29:07;;;;;;;5.60;3.38;;;23.80;99.90;;;;;;5033882;28;20037;-57
2023/05/21 06:31:33;;;;;;;5.25;3.60;;;23.80;99.90;;;;;;5033577;28;20484;-57
2023/05/21 06:33:59;;;;;;;4.93;3.58;;;23.80;99.90;;;;;;5033706;28;20060;-57
2023/05/21 06:36:28;;;;;;;5.40;3.58;;;23.80;99.90;;;;;;5033658;28;20363;-56
2023/05/21 06:38:55;;;;;;;4.28;3.30;;;23.80;99.90;;;;;;5033493;28;20053;-58
2023/05/21 06:41:22;;;;;;;4.38;3.38;;;23.80;99.90;;;;;;5032787;28;20017;-58
2023/05/21 06:43:47;;;;;;;6.32;3.30;;;23.80;99.90;;;;;;5033553;28;20029;-56
2023/05/21 06:46:13;;;;;;;4.22;3.25;;;23.80;99.90;;;;;;5033474;28;20087;-56
2023/05/21 06:48:39;;;;;;;3.90;3.15;;;23.80;99.90;;;;;;5033563;28;20448;-56
2023/05/21 06:51:05;;;;;;;4.20;3.00;;;23.80;99.90;;;;;;5033319;28;20474;-56
2023/05/21 06:53:31;;;;;;;4.45;3.45;;;23.80;99.90;;;;;;5033206;28;20030;-57
2023/05/21 06:55:56;;;;;;;4.97;3.25;;;23.80;99.90;;;;;;5033224;28;20380;-56
2023/05/21 06:58:22;;;;;;;5.60;3.78;;;23.80;99.90;;;;;;5032233;28;20022;-56
2023/05/21 07:00:48;;;;;;;5.38;3.33;;;23.80;99.90;;;;;;5032746;28;20034;-56
2023/05/21 07:03:14;;;;;;;4.80;3.47;;;23.80;99.90;;;;;;5033230;28;20033;-56
2023/05/21 07:05:40;;;;;;;6.20;3.70;;;23.90;99.90;;;;;;5031941;28;20017;-55
2023/05/21 07:08:06;;;;;;;4.97;3.47;;;23.80;99.90;;;;;;5033082;28;20022;-55
2023/05/21 07:10:32;;;;;;;4.65;3.70;;;23.90;99.90;;;;;;5023620;28;20112;-56
2023/05/21 07:12:57;;;;;;;4.85;3.45;;;23.80;99.90;;;;;;5032851;28;20128;-56
2023/05/21 07:15:23;;;;;;;5.85;3.80;;;23.80;99.90;;;;;;5033109;28;20029;-56
2023/05/21 07:17:49;;;;;;;4.57;3.25;;;23.90;99.90;;;;;;5032935;28;20030;-57
2023/05/21 07:20:14;;;;;;;5.47;3.90;;;23.80;99.90;;;;;;5032883;28;20508;-56
2023/05/21 07:22:42;;;;;;;3.88;3.20;;;23.90;99.90;;;;;;5032896;28;20033;-55
2023/05/21 07:25:08;;;;;;;7.43;3.55;;;23.90;99.90;;;;;;5031464;28;20370;-55
2023/05/21 07:27:34;;;;;;;3.75;2.88;;;23.90;99.90;;;;;;5031512;28;20025;-56
2023/05/21 07:30:00;;;;;;;5.95;3.58;;;23.80;99.90;;;;;;5032904;28;20100;-56
2023/05/21 07:32:27;;;;;;;4.95;3.70;;;23.80;99.90;;;;;;5032543;28;20071;-56
2023/05/21 07:34:53;;;;;;;;;;;23.80;99.90;;;;;;5033180;28;20030;-56
2023/05/21 07:37:19;;;;;;;3.75;3.10;;;23.80;99.90;;;;;;5032795;28;19912;-56
2023/05/21 07:39:45;;;;;;;5.75;3.67;;;23.90;99.90;;;;;;5032618;28;20021;-55
2023/05/21 07:42:11;;;;;;;4.18;3.42;;;23.80;99.90;;;;;;5032749;28;20092;-55
2023/05/21 07:44:37;;;;;;;5.30;3.80;;;23.80;99.90;;;;;;5031338;28;20055;-56
2023/05/21 07:47:03;;;;;;;5.43;4.00;;;23.80;99.90;;;;;;5032369;28;20021;-56
2023/05/21 07:49:29;;;;;;;5.18;3.95;;;23.90;99.90;;;;;;5032414;28;20025;-55
2023/05/21 07:51:55;;;;;;;5.15;3.67;;;23.80;99.90;;;;;;5033326;28;20105;-56
2023/05/21 07:54:21;;;;;;;4.05;3.33;;;23.90;99.90;;;;;;5036342;28;20037;-56
2023/05/21 07:56:46;;;;;;;5.20;3.33;;;23.80;99.90;;;;;;5036508;28;20385;-56
2023/05/21 07:59:13;;;;;;;4.78;3.47;;;23.90;99.90;;;;;;5036537;28;20508;-56
2023/05/21 08:01:39;;;;;;;5.97;3.97;;;23.80;99.90;;;;;;5036064;28;20124;-56
2023/05/21 08:04:05;;;;;;;5.88;4.43;;;23.90;99.90;;;;;;5036764;28;20029;-57
2023/05/21 08:06:36;;;;;;;5.85;3.97;;;23.90;99.90;;;;;;5036353;28;20474;-57
2023/05/21 08:09:02;;;;;;;4.45;3.60;;;23.90;99.90;;;;;;5036142;28;20024;-56
2023/05/21 08:11:28;;;;;;;6.47;4.47;;;23.90;99.90;;;;;;5034986;28;20033;-56
2023/05/21 08:13:55;;;;;;;7.35;4.20;;;23.80;99.90;;;;;;5036340;28;20476;-57
2023/05/21 08:16:22;;;;;;;5.23;4.00;;;23.80;99.90;;;;;;5034827;28;20025;-56
2023/05/21 08:18:48;;;;;;;5.18;4.22;;;23.80;99.90;;;;;;5034718;28;20328;-56
2023/05/21 08:21:14;;;;;;;5.65;4.00;;;23.90;99.90;;;;;;5036294;28;20026;-56
2023/05/21 08:23:40;;;;;;;5.65;3.80;;;23.90;99.90;;;;;;5035542;28;20022;-56
2023/05/21 08:26:05;;;;;;;4.10;3.28;;;23.90;99.90;;;;;;5036103;28;20421;-56
2023/05/21 08:28:31;;;;;;;4.90;3.97;;;23.90;99.90;;;;;;5035930;28;20478;-56
2023/05/21 08:30:57;;;;;;;6.22;4.53;;;23.80;99.90;;;;;;5034488;28;20029;-55
2023/05/21 08:33:23;;;;;;;5.38;3.72;;;23.80;99.90;;;;;;5035873;28;20067;-56
2023/05/21 08:35:49;;;;;;;5.72;4.55;;;23.90;99.90;;;;;;5035759;28;20091;-56
2023/05/21 08:38:16;;;;;;;5.07;4.13;;;23.90;99.90;;;;;;5034131;28;20094;-56
2023/05/21 08:40:42;;;;;;;4.47;3.47;;;23.80;99.90;;;;;;5035758;28;20017;-56
2023/05/21 08:43:12;;;;;;;4.72;3.78;;;23.80;99.90;;;;;;5035787;28;20117;-56
2023/05/21 08:45:43;;;;;;;6.25;4.28;;;23.80;99.90;;;;;;5035616;28;20381;-56
2023/05/21 08:48:12;;;;;;;6.55;4.15;;;23.80;99.90;;;;;;5035746;28;20021;-56
2023/05/21 08:50:39;;;;;;;5.78;4.10;;;23.80;99.90;;;;;;5035686;28;20026;-56
2023/05/21 08:53:05;;;;;;;6.82;4.20;;;23.80;99.90;;;;;;5034212;28;20033;-57
2023/05/21 08:55:32;;;;;;;5.75;4.30;;;23.80;99.90;;;;;;5035179;28;20482;-57
2023/05/21 08:57:58;;;;;;;6.50;4.35;;;23.80;99.90;;;;;;5035192;28;20025;-56
2023/05/21 09:00:23;;;;;;;7.15;4.45;;;23.80;99.90;;;;;;5035158;28;20516;-56
2023/05/21 09:02:53;;;;;;;8.20;4.70;;;23.80;99.90;;;;;;5034080;28;20049;-56
2023/05/21 09:05:19;;;;;;;6.20;4.40;;;23.80;99.90;;;;;;5035283;28;20053;-57
2023/05/21 09:07:45;;;;;;;8.00;5.05;;;23.80;99.90;;;;;;5035111;28;20041;-57
2023/05/21 09:10:17;;;;;;;6.03;4.43;;;23.80;99.90;;;;;;5035315;28;20060;-56
2023/05/21 09:12:43;;;;;;;7.05;4.72;;;23.80;99.90;;;;;;5035133;28;20025;-57
2023/05/21 09:15:09;;;;;;;7.28;4.90;;;23.80;99.90;;;;;;5035221;28;20029;-57
2023/05/21 09:17:35;;;;;;;6.82;4.65;;;23.80;99.90;;;;;;5034462;28;20363;-58
2023/05/21 09:20:16;;;;;;;5.88;4.40;;;23.80;99.90;;;;;;5035172;28;20028;-59
2023/05/21 09:22:45;;;;;;;6.50;4.72;;;23.80;99.90;;;;;;5035082;28;20462;-59
2023/05/21 09:25:12;;;;;;;8.88;5.00;;;23.80;99.90;;;;;;5034780;28;20462;-59
2023/05/21 09:27:39;;;;;;;8.98;4.85;;;23.80;99.90;;;;;;5034654;28;20093;-58
2023/05/21 09:30:12;;;;;;;8.38;4.88;;;23.80;99.90;;;;;;5035119;28;20036;-59
2023/05/21 09:32:39;;;;;;;5.80;4.75;;;23.80;99.90;;;;;;5033650;28;20129;-60
2023/05/21 09:35:14;;;;;;;7.05;5.07;;;23.80;99.90;;;;;;5034769;28;20017;-59
2023/05/21 09:37:44;;;;;;;9.40;4.53;;;23.80;99.90;;;;;;5034793;28;20025;-60
2023/05/21 09:40:17;;;;;;;6.63;4.82;;;23.80;99.90;;;;;;5021456;28;20481;-60
2023/05/21 09:42:51;;;;;;;9.35;5.03;;;23.80;99.90;;;;;;5034541;28;20405;-59
2023/05/21 09:45:21;;;;;;;8.70;4.50;;;23.70;99.90;;;;;;5034560;28;20041;-60
2023/05/21 09:47:48;;;;;;;8.80;5.13;;;23.70;99.90;;;;;;5034492;28;20034;-58
2023/05/21 09:50:23;;;;;;;10.38;5.57;;;23.80;99.90;;;;;;5034661;28;20074;-58
2023/05/21 09:52:51;;;;;;;7.43;4.72;;;23.70;99.90;;;;;;5031334;28;20532;-57
2023/05/21 09:55:20;;;;;;;7.70;4.68;;;23.70;99.90;;;;;;5034314;28;20574;-57
2023/05/21 09:57:47;;;;;;;6.72;4.47;;;23.70;99.90;;;;;;5034370;28;20032;-59
2023/05/21 10:00:17;;;;;;;7.23;5.63;;;23.70;99.90;;;;;;5034383;28;20083;-60
2023/05/21 10:02:48;;;;;;;7.45;4.72;;;23.70;99.90;;;;;;5033843;28;20121;-59
2023/05/21 10:05:15;;;;;;;9.60;5.18;;;23.70;99.90;;;;;;5034300;28;20375;-61
2023/05/21 10:07:43;;;;;;;6.60;5.05;;;23.70;99.90;;;;;;5034010;28;20492;-61
2023/05/21 10:10:15;;;;;;;8.35;4.95;;;23.70;99.90;;;;;;5033946;28;20421;-61
2023/05/21 10:12:45;;;;;;;6.25;5.07;;;23.70;99.90;;;;;;5034000;28;20049;-61
2023/05/21 10:15:15;;;;;;;8.10;5.30;;;23.70;99.90;;;;;;5033025;28;20036;-60
2023/05/21 10:17:43;;;;;;;7.57;4.60;;;23.70;99.90;;;;;;5033794;28;20029;-61
2023/05/21 10:20:12;;;;;;;7.55;4.95;;;23.70;99.90;;;;;;5033773;28;20026;-60
2023/05/21 10:22:39;;;;;;;6.65;5.13;;;23.70;99.90;;;;;;5033838;28;20448;-59
2023/05/21 10:25:08;;;;;;;7.18;5.05;;;23.60;99.90;;;;;;5033619;28;20088;-57
2023/05/21 10:27:35;;;;;;;8.40;5.43;;;23.60;99.90;;;;;;5033603;28;20117;-57
2023/05/21 10:30:03;;;;;;;8.85;5.70;;;23.60;99.90;;;;;;5033652;28;20018;-57
2023/05/21 10:32:30;;;;;;;7.30;5.25;;;23.60;99.90;;;;;;5033278;28;20393;-57
2023/05/21 10:34:56;;;;;;;7.93;5.28;;;23.60;99.90;;;;;;5033773;28;20021;-57
2023/05/21 10:37:25;;;;;;;7.55;5.30;;;23.60;99.90;;;;;;5032315;28;20481;-57
2023/05/21 10:39:51;;;;;;;8.38;5.75;;;23.60;99.90;;;;;;5033305;28;20028;-57
2023/05/21 10:42:22;;;;;;;6.80;5.00;;;23.60;99.90;;;;;;5033684;28;20025;-59
2023/05/21 10:44:54;;;;;;;6.93;4.70;;;23.60;99.90;;;;;;5033338;28;20056;-58
2023/05/21 10:47:58;;;;;;;8.63;5.30;;;23.60;99.90;;;;;;5033449;28;20025;-58
2023/05/21 10:50:57;;;;;;;7.45;4.63;;;23.60;99.90;;;;;;5025226;28;20132;-58
2023/05/21 10:53:58;;;;;;;7.25;5.30;;;23.60;99.90;;;;;;5033051;28;20131;-60
2023/05/21 10:56:46;;;;;;;7.72;5.07;;;23.60;99.90;;;;;;5033201;28;20034;-58
2023/05/21 10:59:34;;;;;;;7.28;5.15;;;23.60;99.90;;;;;;5032419;28;20026;-59
2023/05/21 11:02:01;;;;;;;9.98;5.15;;;23.60;99.90;;;;;;5032899;28;20050;-59
2023/05/21 11:04:28;;;;;;;7.53;4.90;;;23.60;99.90;;;;;;5033183;28;20028;-58
2023/05/21 11:06:55;;;;;;;7.20;5.15;;;23.60;99.90;;;;;;5033270;28;20029;-58
2023/05/21 11:09:20;;;;;;;8.88;5.68;;;23.60;99.90;;;;;;5032971;28;20056;-58
2023/05/21 11:12:13;;;;;;;9.90;5.63;;;23.60;99.90;;;;;;5032990;28;20061;-57
2023/05/21 11:14:55;;;;;;;7.32;5.05;;;23.60;99.90;;;;;;5030864;28;20541;-57
2023/05/21 11:17:41;;;;;;;7.07;5.20;;;23.60;99.90;;;;;;5032904;28;20029;-57
2023/05/21 11:20:12;;;;;;;7.70;4.80;;;23.60;99.90;;;;;;5033187;28;20548;-58
2023/05/21 11:22:38;;;;;;;6.55;4.50;;;23.60;99.90;;;;;;5033027;28;20452;-57
2023/05/21 11:25:05;;;;;;;7.47;4.88;;;23.60;99.90;;;;;;5032936;28;20018;-57
2023/05/21 11:27:34;;;;;;;7.18;5.20;;;23.60;99.90;;;;;;5031231;28;20022;-57
2023/05/21 11:30:04;;;;;;;9.85;4.70;;;23.60;99.90;;;;;;5030169;28;20049;-57
2023/05/21 11:32:30;;;;;;;6.85;4.65;;;23.60;99.90;;;;;;5032496;28;20116;-57
2023/05/21 11:34:59;;;;;;;6.22;4.30;;;23.60;99.90;;;;;;5031709;28;20117;-57
2023/05/21 11:37:27;;;;;;;6.22;5.00;;;23.60;99.90;;;;;;5024591;28;20029;-57
2023/05/21 11:39:55;;;;;;;6.28;4.30;;;23.60;99.90;;;;;;5032514;28;20013;-57
2023/05/21 11:42:30;;;;;;;7.28;5.18;;;23.60;99.90;;;;;;5033056;28;20025;-57
2023/05/21 11:44:58;;;;;;;6.32;4.53;;;23.60;99.90;;;;;;5018109;28;20373;-57
2023/05/21 11:47:27;;;;;;;5.57;3.83;;;23.60;99.90;;;;;;5032593;28;20028;-58
2023/05/21 11:49:54;;;;;;;7.90;4.95;;;23.60;99.90;;;;;;5032568;28;20025;-57
2023/05/21 11:52:20;;;;;;;6.75;4.47;;;23.60;99.90;;;;;;5032804;28;20160;-58
2023/05/21 11:54:50;;;;;;;6.90;4.47;;;23.60;99.90;;;;;;5032591;28;20480;-58
2023/05/21 11:57:17;;;;;;;7.28;4.78;;;23.60;99.90;;;;;;5032586;28;20029;-58
2023/05/21 11:59:50;;;;;;;8.07;4.68;;;23.60;99.90;;;;;;5032580;28;20125;-57
2023/05/21 12:02:22;;;;;;;9.45;5.53;;;23.60;99.90;;;;;;5031397;28;20413;-57
2023/05/21 12:04:49;;;;;;;7.97;4.57;;;23.60;99.90;;;;;;5032546;28;20082;-57
2023/05/21 12:07:18;;;;;;;8.70;5.13;;;23.60;99.90;;;;;;5032637;28;20022;-57
2023/05/21 12:09:46;;;;;;;6.50;4.82;;;23.60;99.90;;;;;;5032291;28;20032;-57
2023/05/21 12:12:15;;;;;;;7.07;4.80;;;23.60;99.90;;;;;;5032443;28;20111;-57
2023/05/21 12:14:49;;;;;;;6.32;4.40;;;23.60;99.90;;;;;;5032470;28;20052;-56
2023/05/21 12:17:26;;;;;;;8.52;5.28;;;23.60;99.90;;;;;;5031110;28;20044;-56
2023/05/21 12:19:58;;;;;;;;;;;23.60;99.90;;;;;;5032639;28;20017;-56
2023/05/21 12:22:26;;;;;;;7.65;4.63;;;23.60;99.90;;;;;;5030968;28;19912;-57
2023/05/21 12:24:52;;;;;;;6.30;4.47;;;23.60;99.90;;;;;;5032289;28;20374;-56
2023/05/21 12:27:20;;;;;;;6.97;4.60;;;23.60;99.90;;;;;;5032488;28;20026;-56
2023/05/21 12:29:50;;;;;;;7.22;4.57;;;23.60;99.90;;;;;;5032261;28;20029;-57
2023/05/21 12:32:16;;;;;;;7.50;4.30;;;23.60;99.90;;;;;;5032213;28;20147;-56
2023/05/21 12:34:43;;;;;;;5.97;4.32;;;23.60;99.90;;;;;;5032267;28;20489;-56
2023/05/21 12:37:11;;;;;;;5.50;4.45;;;23.60;99.90;;;;;;5032305;28;20402;-57
2023/05/21 12:39:46;;;;;;;;;;;23.60;99.90;;;;;;5034940;28;20041;-57
2023/05/21 12:42:13;;;;;;;9.05;5.20;;;23.60;99.90;;;;;;5035901;28;19906;-57
2023/05/21 12:44:48;;;;;;;8.53;4.70;;;23.60;99.90;;;;;;5035459;28;20022;-57
2023/05/21 12:47:14;;;;;;;6.82;4.50;;;23.60;99.90;;;;;;5035583;28;20083;-58
2023/05/21 12:49:43;;;;;;;7.30;4.72;;;23.60;99.90;;;;;;5035480;28;20021;-57
2023/05/21 12:52:13;;;;;;;6.70;4.25;;;23.60;99.90;;;;;;5035734;28;20418;-58